createdAt,value
2022-07-29T00:00:11.079Z,100454.06
2022-07-29T00:01:19.374Z,100453.03
2022-07-29T00:02:13.189Z,100451.71
2022-07-29T00:03:11.200Z,100450.19
2022-07-29T00:04:11.183Z,100451.42
2022-07-29T00:05:11.068Z,100449.88
2022-07-29T00:06:11.067Z,100451.30
2022-07-29T00:07:11.069Z,100451.96
2022-07-29T00:08:12.748Z,100449.91
2022-07-29T00:09:11.068Z,100449.88
2022-07-29T00:10:11.067Z,100447.84
2022-07-29T00:11:11.074Z,100450.85
2022-07-29T00:12:11.065Z,100449.59
2022-07-29T00:13:11.067Z,100452.13
2022-07-29T00:14:11.074Z,100450.11
2022-07-29T00:15:11.068Z,100451.54
2022-07-29T00:16:11.078Z,100447.53
2022-07-29T00:17:11.070Z,100446.71
2022-07-29T00:18:11.068Z,100446.28
2022-07-29T00:19:11.068Z,100450.04
2022-07-29T00:20:11.067Z,100446.75
2022-07-29T00:21:11.069Z,100449.42
2022-07-29T00:22:11.066Z,100449.07
2022-07-29T00:23:13.723Z,100447.43
2022-07-29T00:24:11.058Z,100444.36
2022-07-29T00:25:11.055Z,100447.18
2022-07-29T00:26:11.058Z,100444.23
2022-07-29T00:27:11.074Z,100443.14
2022-07-29T00:28:11.058Z,100443.10
2022-07-29T00:29:33.517Z,100442.70
2022-07-29T00:30:13.235Z,100442.27
2022-07-29T00:31:11.091Z,100446.07
2022-07-29T00:32:11.062Z,100444.05
2022-07-29T00:33:11.059Z,100443.25
2022-07-29T00:34:11.058Z,100444.05
2022-07-29T00:35:15.060Z,100445.78
2022-07-29T00:36:11.059Z,100445.12
2022-07-29T00:37:11.067Z,100443.99
2022-07-29T00:38:11.062Z,100440.19
2022-07-29T00:39:11.063Z,100442.87
2022-07-29T00:40:11.062Z,100444.94
2022-07-29T00:41:11.061Z,100443.34
2022-07-29T00:42:11.079Z,100442.81
2022-07-29T00:43:11.059Z,100444.93
2022-07-29T00:44:11.062Z,100448.42
2022-07-29T00:45:11.061Z,100450.06
2022-07-29T00:46:11.079Z,100447.50
2022-07-29T00:47:11.250Z,100447.48
2022-07-29T00:48:11.058Z,100445.35
2022-07-29T00:49:12.145Z,100440.85
2022-07-29T00:50:11.070Z,100442.83
2022-07-29T00:51:11.062Z,100443.83
2022-07-29T00:52:11.069Z,100440.84
2022-07-29T00:53:12.069Z,100442.02
2022-07-29T00:54:11.063Z,100442.22
2022-07-29T00:55:11.058Z,100441.26
2022-07-29T00:56:11.064Z,100441.54
2022-07-29T00:57:11.062Z,100441.35
2022-07-29T00:58:12.059Z,100443.03
2022-07-29T00:59:11.065Z,100441.23
2022-07-29T01:00:11.065Z,100442.50
2022-07-29T01:01:11.122Z,100443.37
2022-07-29T01:02:11.179Z,100443.91
2022-07-29T01:03:11.064Z,100442.69
2022-07-29T01:04:11.061Z,100445.87
2022-07-29T01:05:11.063Z,100445.72
2022-07-29T01:06:11.067Z,100443.19
2022-07-29T01:07:11.062Z,100444.91
2022-07-29T01:08:12.064Z,100444.73
2022-07-29T01:09:11.071Z,100448.31
2022-07-29T01:10:13.060Z,100449.02
2022-07-29T01:11:11.065Z,100446.15
2022-07-29T01:12:11.070Z,100446.72
2022-07-29T01:13:11.067Z,100444.59
2022-07-29T01:14:11.062Z,100443.23
2022-07-29T01:15:11.073Z,100442.74
2022-07-29T01:16:16.129Z,100442.96
2022-07-29T01:17:18.065Z,100440.54
2022-07-29T01:18:15.066Z,100436.54
2022-07-29T01:19:19.075Z,100443.57
2022-07-29T01:20:19.066Z,100439.50
2022-07-29T01:21:19.064Z,100442.27
2022-07-29T01:22:21.062Z,100441.42
2022-07-29T01:23:19.061Z,100441.68
2022-07-29T01:24:19.219Z,100442.36
2022-07-29T01:25:19.061Z,100445.05
2022-07-29T01:26:20.627Z,100442.45
2022-07-29T01:27:22.057Z,100446.61
2022-07-29T01:28:21.062Z,100440.94
2022-07-29T01:29:19.063Z,100441.38
2022-07-29T01:30:11.067Z,100442.78
2022-07-29T01:31:11.146Z,100444.72
2022-07-29T01:32:22.559Z,100441.03
2022-07-29T01:33:16.117Z,100444.32
2022-07-29T01:34:15.309Z,100445.68
2022-07-29T01:35:24.060Z,100443.01
2022-07-29T01:36:14.061Z,100446.48
2022-07-29T01:37:19.061Z,100445.50
2022-07-29T01:38:17.070Z,100447.57
2022-07-29T01:39:17.063Z,100449.55
2022-07-29T01:40:19.060Z,100449.52
2022-07-29T01:41:16.062Z,100447.82
2022-07-29T01:42:20.061Z,100447.42
2022-07-29T01:43:19.069Z,100447.31
2022-07-29T01:44:18.711Z,100444.16
2022-07-29T01:45:19.060Z,100444.69
2022-07-29T01:46:15.171Z,100447.41
2022-07-29T01:47:15.065Z,100445.04
2022-07-29T01:48:18.064Z,100446.51
2022-07-29T01:49:17.156Z,100444.85
2022-07-29T01:50:13.060Z,100449.59
2022-07-29T01:51:16.071Z,100448.62
2022-07-29T01:52:19.388Z,100445.03
2022-07-29T01:53:11.070Z,100444.40
2022-07-29T01:54:20.065Z,100446.87
2022-07-29T01:55:14.066Z,100447.85
2022-07-29T01:56:11.065Z,100448.45
2022-07-29T01:57:11.067Z,100449.25
2022-07-29T01:58:11.068Z,100451.96
2022-07-29T01:59:11.068Z,100454.41
2022-07-29T02:00:11.067Z,100453.91
2022-07-29T02:01:11.063Z,100454.80
2022-07-29T02:02:11.118Z,100451.20
2022-07-29T02:03:12.066Z,100448.11
2022-07-29T02:04:12.207Z,100446.42
2022-07-29T02:05:14.253Z,100445.10
2022-07-29T02:06:12.068Z,100442.84
2022-07-29T02:07:14.069Z,100444.89
2022-07-29T02:08:11.069Z,100443.15
2022-07-29T02:09:11.068Z,100444.11
2022-07-29T02:10:11.065Z,100445.45
2022-07-29T02:11:11.064Z,100445.54
2022-07-29T02:12:11.066Z,100444.83
2022-07-29T02:13:11.063Z,100445.39
2022-07-29T02:14:12.173Z,100447.48
2022-07-29T02:15:11.069Z,100447.74
2022-07-29T02:16:11.107Z,100449.39
2022-07-29T02:17:11.067Z,100450.91
2022-07-29T02:18:17.075Z,100453.21
2022-07-29T02:19:11.068Z,100450.62
2022-07-29T02:20:11.075Z,100448.35
2022-07-29T02:21:14.786Z,100445.58
2022-07-29T02:22:11.072Z,100446.84
2022-07-29T02:23:12.060Z,100445.79
2022-07-29T02:24:11.059Z,100445.90
2022-07-29T02:25:14.075Z,100445.79
2022-07-29T02:26:11.060Z,100444.73
2022-07-29T02:27:11.061Z,100446.99
2022-07-29T02:28:11.060Z,100444.72
2022-07-29T02:29:11.063Z,100446.38
2022-07-29T02:30:11.101Z,100448.80
2022-07-29T02:31:11.145Z,100444.79
2022-07-29T02:32:12.061Z,100445.82
2022-07-29T02:33:12.060Z,100446.01
2022-07-29T02:34:11.071Z,100445.79
2022-07-29T02:35:11.071Z,100447.59
2022-07-29T02:36:11.062Z,100449.44
2022-07-29T02:37:11.069Z,100452.60
2022-07-29T02:38:16.062Z,100453.91
2022-07-29T02:39:11.061Z,100452.86
2022-07-29T02:40:11.061Z,100454.20
2022-07-29T02:41:17.062Z,100454.86
2022-07-29T02:42:12.061Z,100451.54
2022-07-29T02:43:11.058Z,100451.67
2022-07-29T02:44:18.471Z,100449.15
2022-07-29T02:45:11.063Z,100453.62
2022-07-29T02:46:28.260Z,100451.12
2022-07-29T02:47:22.110Z,100450.63
2022-07-29T02:48:15.065Z,100450.55
2022-07-29T02:49:18.141Z,100451.08
2022-07-29T02:50:21.061Z,100450.41
2022-07-29T02:51:43.351Z,100451.62
2022-07-29T02:52:22.052Z,100448.32
2022-07-29T02:53:16.076Z,100447.48
2022-07-29T02:54:11.069Z,100446.91
2022-07-29T02:55:19.060Z,100446.19
2022-07-29T02:56:15.065Z,100448.45
2022-07-29T02:57:19.077Z,100448.43
2022-07-29T02:58:22.082Z,100449.11
2022-07-29T02:59:12.066Z,100448.30
2022-07-29T03:00:11.060Z,100444.72
2022-07-29T03:01:21.577Z,100445.37
2022-07-29T03:02:11.163Z,100445.28
2022-07-29T03:03:13.066Z,100443.00
2022-07-29T03:04:12.222Z,100443.78
2022-07-29T03:05:11.179Z,100443.24
2022-07-29T03:06:28.094Z,100440.22
2022-07-29T03:07:13.136Z,100440.29
2022-07-29T03:08:12.069Z,100443.50
2022-07-29T03:09:13.473Z,100442.71
2022-07-29T03:10:13.598Z,100440.00
2022-07-29T03:11:11.065Z,100443.85
2022-07-29T03:12:11.071Z,100441.58
2022-07-29T03:13:11.065Z,100444.48
2022-07-29T03:14:11.068Z,100445.60
2022-07-29T03:15:11.074Z,100446.82
2022-07-29T03:16:11.135Z,100444.15
2022-07-29T03:17:12.069Z,100445.71
2022-07-29T03:18:11.075Z,100439.86
2022-07-29T03:19:11.070Z,100446.73
2022-07-29T03:20:11.070Z,100448.61
2022-07-29T03:21:11.070Z,100444.55
2022-07-29T03:22:11.068Z,100448.17
2022-07-29T03:23:11.060Z,100446.57
2022-07-29T03:24:11.258Z,100449.80
2022-07-29T03:25:11.059Z,100446.57
2022-07-29T03:26:11.058Z,100447.10
2022-07-29T03:27:11.059Z,100447.45
2022-07-29T03:28:11.060Z,100447.76
2022-07-29T03:29:11.058Z,100443.93
2022-07-29T03:30:11.060Z,100446.13
2022-07-29T03:31:11.116Z,100441.98
2022-07-29T03:32:11.064Z,100445.33
2022-07-29T03:33:13.550Z,100444.54
2022-07-29T03:34:11.066Z,100445.58
2022-07-29T03:35:11.060Z,100446.48
2022-07-29T03:36:11.063Z,100444.93
2022-07-29T03:37:11.067Z,100446.54
2022-07-29T03:38:11.061Z,100444.51
2022-07-29T03:39:11.065Z,100441.72
2022-07-29T03:40:12.069Z,100445.25
2022-07-29T03:41:11.069Z,100445.20
2022-07-29T03:42:12.062Z,100447.22
2022-07-29T03:43:11.060Z,100450.77
2022-07-29T03:44:11.072Z,100451.50
2022-07-29T03:45:13.060Z,100448.89
2022-07-29T03:46:11.137Z,100448.39
2022-07-29T03:47:11.063Z,100448.16
2022-07-29T03:48:13.059Z,100451.13
2022-07-29T03:49:11.116Z,100454.79
2022-07-29T03:50:11.070Z,100450.91
2022-07-29T03:51:11.064Z,100455.07
2022-07-29T03:52:11.065Z,100460.93
2022-07-29T03:53:11.074Z,100458.78
2022-07-29T03:54:11.064Z,100458.88
2022-07-29T03:55:11.066Z,100457.82
2022-07-29T03:56:11.076Z,100459.33
2022-07-29T03:57:11.066Z,100462.70
2022-07-29T03:58:11.060Z,100459.21
2022-07-29T03:59:11.101Z,100461.95
2022-07-29T04:00:11.094Z,100462.81
2022-07-29T04:01:11.066Z,100462.81
2022-07-29T04:02:11.088Z,100463.20
2022-07-29T04:03:11.826Z,100459.54
2022-07-29T04:04:11.067Z,100464.16
2022-07-29T04:05:14.065Z,100465.55
2022-07-29T04:06:13.067Z,100464.96
2022-07-29T04:07:14.063Z,100462.99
2022-07-29T04:08:11.070Z,100460.64
2022-07-29T04:09:11.077Z,100462.65
2022-07-29T04:10:11.067Z,100460.59
2022-07-29T04:11:11.069Z,100460.58
2022-07-29T04:12:11.073Z,100459.29
2022-07-29T04:13:11.068Z,100458.77
2022-07-29T04:14:11.072Z,100461.07
2022-07-29T04:15:11.070Z,100460.55
2022-07-29T04:16:11.154Z,100459.28
2022-07-29T04:17:11.064Z,100461.52
2022-07-29T04:18:11.066Z,100462.66
2022-07-29T04:19:11.068Z,100461.30
2022-07-29T04:20:11.066Z,100460.82
2022-07-29T04:21:11.067Z,100465.80
2022-07-29T04:22:11.076Z,100466.03
2022-07-29T04:23:11.057Z,100464.51
2022-07-29T04:24:11.054Z,100463.24
2022-07-29T04:25:11.060Z,100466.77
2022-07-29T04:26:11.061Z,100464.17
2022-07-29T04:27:11.057Z,100465.59
2022-07-29T04:28:11.062Z,100467.48
2022-07-29T04:29:11.060Z,100464.62
2022-07-29T04:30:11.056Z,100468.05
2022-07-29T04:31:11.128Z,100471.46
2022-07-29T04:32:11.067Z,100472.12
2022-07-29T04:33:11.059Z,100470.63
2022-07-29T04:34:11.062Z,100474.02
2022-07-29T04:35:11.067Z,100472.01
2022-07-29T04:36:28.892Z,100470.73
2022-07-29T04:37:13.185Z,100471.28
2022-07-29T04:38:15.904Z,100471.49
2022-07-29T04:39:13.136Z,100470.70
2022-07-29T04:40:11.059Z,100471.83
2022-07-29T04:41:11.061Z,100471.28
2022-07-29T04:42:11.069Z,100470.00
2022-07-29T04:43:11.057Z,100469.64
2022-07-29T04:44:11.062Z,100470.19
2022-07-29T04:45:11.067Z,100471.23
2022-07-29T04:46:11.155Z,100474.43
2022-07-29T04:47:11.058Z,100473.00
2022-07-29T04:48:11.064Z,100471.22
2022-07-29T04:49:11.121Z,100469.63
2022-07-29T04:50:11.066Z,100471.44
2022-07-29T04:51:11.061Z,100466.54
2022-07-29T04:52:11.065Z,100468.53
2022-07-29T04:53:11.061Z,100469.39
2022-07-29T04:54:11.061Z,100468.23
2022-07-29T04:55:11.063Z,100467.25
2022-07-29T04:56:11.062Z,100470.72
2022-07-29T04:57:11.062Z,100472.82
2022-07-29T04:58:11.065Z,100475.48
2022-07-29T04:59:11.062Z,100472.50
2022-07-29T05:00:11.070Z,100473.04
2022-07-29T05:01:11.150Z,100474.98
2022-07-29T05:02:11.163Z,100474.46
2022-07-29T05:03:11.114Z,100475.43
2022-07-29T05:04:11.064Z,100475.04
2022-07-29T05:05:11.073Z,100480.30
2022-07-29T05:06:11.079Z,100479.90
2022-07-29T05:07:11.067Z,100481.52
2022-07-29T05:08:11.081Z,100485.96
2022-07-29T05:09:11.071Z,100486.44
2022-07-29T05:10:11.063Z,100484.64
2022-07-29T05:11:12.020Z,100485.95
2022-07-29T05:12:11.074Z,100487.67
2022-07-29T05:13:11.062Z,100489.01
2022-07-29T05:14:11.065Z,100483.78
2022-07-29T05:15:11.066Z,100489.34
2022-07-29T05:16:11.178Z,100488.23
2022-07-29T05:17:11.064Z,100487.95
2022-07-29T05:18:11.067Z,100492.54
2022-07-29T05:19:14.147Z,100491.45
2022-07-29T05:20:11.066Z,100492.18
2022-07-29T05:21:11.073Z,100492.32
2022-07-29T05:22:11.068Z,100493.04
2022-07-29T05:23:11.060Z,100493.39
2022-07-29T05:24:11.069Z,100494.35
2022-07-29T05:25:11.056Z,100497.38
2022-07-29T05:26:11.064Z,100497.04
2022-07-29T05:27:11.069Z,100494.43
2022-07-29T05:28:11.059Z,100493.60
2022-07-29T05:29:42.896Z,100495.09
2022-07-29T05:30:13.145Z,100496.81
2022-07-29T05:31:11.104Z,100498.85
2022-07-29T05:32:11.081Z,100495.73
2022-07-29T05:33:35.373Z,100498.40
2022-07-29T05:34:13.694Z,100495.69
2022-07-29T05:35:11.057Z,100497.12
2022-07-29T05:36:13.062Z,100497.54
2022-07-29T05:37:11.071Z,100494.84
2022-07-29T05:38:11.061Z,100498.54
2022-07-29T05:39:11.063Z,100499.89
2022-07-29T05:40:11.067Z,100497.86
2022-07-29T05:41:11.062Z,100499.68
2022-07-29T05:42:13.064Z,100501.22
2022-07-29T05:43:11.063Z,100500.49
2022-07-29T05:44:11.062Z,100505.90
2022-07-29T05:45:11.057Z,100504.32
2022-07-29T05:46:11.127Z,100507.52
2022-07-29T05:47:11.064Z,100507.44
2022-07-29T05:48:11.062Z,100506.52
2022-07-29T05:49:11.107Z,100511.70
2022-07-29T05:50:13.848Z,100512.36
2022-07-29T05:51:11.060Z,100511.21
2022-07-29T05:52:11.062Z,100516.71
2022-07-29T05:53:19.576Z,100512.45
2022-07-29T05:54:13.467Z,100513.46
2022-07-29T05:55:11.064Z,100513.83
2022-07-29T05:56:11.067Z,100513.73
2022-07-29T05:57:15.063Z,100514.03
2022-07-29T05:58:11.060Z,100515.26
2022-07-29T05:59:18.115Z,100517.48
2022-07-29T06:00:13.352Z,100517.92
2022-07-29T06:01:11.119Z,100517.26
2022-07-29T06:02:11.068Z,100514.10
2022-07-29T06:03:11.063Z,100517.41
2022-07-29T06:04:11.086Z,100516.41
2022-07-29T06:05:16.231Z,100519.03
2022-07-29T06:06:13.182Z,100520.59
2022-07-29T06:07:11.063Z,100521.61
2022-07-29T06:08:13.065Z,100522.18
2022-07-29T06:09:12.483Z,100520.95
2022-07-29T06:10:11.066Z,100523.77
2022-07-29T06:11:11.068Z,100524.81
2022-07-29T06:12:11.067Z,100523.64
2022-07-29T06:13:11.065Z,100522.62
2022-07-29T06:14:11.063Z,100521.97
2022-07-29T06:15:11.068Z,100524.41
2022-07-29T06:16:11.139Z,100520.31
2022-07-29T06:17:11.069Z,100520.80
2022-07-29T06:18:13.080Z,100522.52
2022-07-29T06:19:11.066Z,100519.24
2022-07-29T06:20:11.062Z,100520.68
2022-07-29T06:21:11.068Z,100521.64
2022-07-29T06:22:11.069Z,100522.86
2022-07-29T06:23:11.062Z,100520.25
2022-07-29T06:24:11.062Z,100519.23
2022-07-29T06:25:11.059Z,100519.64
2022-07-29T06:26:11.055Z,100519.90
2022-07-29T06:27:13.066Z,100517.41
2022-07-29T06:28:11.065Z,100520.86
2022-07-29T06:29:11.057Z,100519.46
2022-07-29T06:30:11.072Z,100521.01
2022-07-29T06:31:11.117Z,100517.82
2022-07-29T06:32:11.061Z,100520.75
2022-07-29T06:33:11.060Z,100522.90
2022-07-29T06:34:11.068Z,100524.74
2022-07-29T06:36:13.347Z,100523.87
2022-07-29T06:37:15.358Z,100524.07
2022-07-29T06:38:25.068Z,100527.12
2022-07-29T06:39:13.364Z,100525.02
2022-07-29T06:40:15.063Z,100529.03
2022-07-29T06:41:11.074Z,100526.80
2022-07-29T06:42:11.064Z,100532.74
2022-07-29T06:43:11.065Z,100535.50
2022-07-29T06:44:11.064Z,100531.14
2022-07-29T06:45:11.059Z,100533.11
2022-07-29T06:46:14.112Z,100531.80
2022-07-29T06:47:11.067Z,100532.25
2022-07-29T06:48:11.063Z,100532.45
2022-07-29T06:49:11.123Z,100533.37
2022-07-29T06:50:11.069Z,100532.40
2022-07-29T06:51:11.060Z,100535.32
2022-07-29T06:52:11.063Z,100537.02
2022-07-29T06:53:11.069Z,100536.98
2022-07-29T06:54:11.063Z,100533.75
2022-07-29T06:55:11.062Z,100538.10
2022-07-29T06:56:13.776Z,100534.09
2022-07-29T06:57:11.069Z,100538.91
2022-07-29T06:58:11.066Z,100538.34
2022-07-29T06:59:11.079Z,100538.68
2022-07-29T07:00:11.065Z,100538.99
2022-07-29T07:01:11.092Z,100541.84
2022-07-29T07:02:11.091Z,100535.79
2022-07-29T07:03:11.065Z,100536.92
2022-07-29T07:04:11.064Z,100540.16
2022-07-29T07:05:11.063Z,100538.37
2022-07-29T07:06:14.940Z,100532.82
2022-07-29T07:07:11.063Z,100536.57
2022-07-29T07:08:11.065Z,100536.23
2022-07-29T07:09:11.073Z,100533.20
2022-07-29T07:10:11.066Z,100532.86
2022-07-29T07:11:11.062Z,100532.37
2022-07-29T07:12:11.066Z,100534.69
2022-07-29T07:13:11.065Z,100534.41
2022-07-29T07:14:11.064Z,100536.00
2022-07-29T07:15:11.068Z,100535.64
2022-07-29T07:16:11.139Z,100534.84
2022-07-29T07:17:11.066Z,100538.97
2022-07-29T07:18:11.068Z,100537.52
2022-07-29T07:19:11.071Z,100540.73
2022-07-29T07:20:11.065Z,100536.92
2022-07-29T07:21:11.065Z,100542.26
2022-07-29T07:22:11.068Z,100537.24
2022-07-29T07:23:11.085Z,100539.36
2022-07-29T07:24:11.057Z,100541.17
2022-07-29T07:25:11.059Z,100541.39
2022-07-29T07:26:11.057Z,100546.41
2022-07-29T07:27:11.061Z,100545.61
2022-07-29T07:28:11.062Z,100548.07
2022-07-29T07:29:11.058Z,100549.50
2022-07-29T07:30:13.061Z,100547.86
2022-07-29T07:31:11.060Z,100548.21
2022-07-29T07:32:11.146Z,100549.85
2022-07-29T07:33:11.058Z,100549.85
2022-07-29T07:34:11.061Z,100549.21
2022-07-29T07:35:11.057Z,100548.88
2022-07-29T07:36:11.060Z,100548.34
2022-07-29T07:37:11.069Z,100551.91
2022-07-29T07:38:11.057Z,100554.06
2022-07-29T07:39:11.060Z,100548.60
2022-07-29T07:40:11.068Z,100549.75
2022-07-29T07:41:11.060Z,100550.95
2022-07-29T07:42:11.064Z,100550.98
2022-07-29T07:43:11.068Z,100555.09
2022-07-29T07:44:15.888Z,100552.32
2022-07-29T07:45:16.263Z,100554.30
2022-07-29T07:46:11.107Z,100551.81
2022-07-29T07:47:12.585Z,100551.26
2022-07-29T07:48:11.065Z,100547.48
2022-07-29T07:49:11.109Z,100551.32
2022-07-29T07:50:16.328Z,100548.67
2022-07-29T07:51:13.168Z,100550.04
2022-07-29T07:52:11.059Z,100553.80
2022-07-29T07:53:11.065Z,100549.76
2022-07-29T07:54:11.063Z,100552.08
2022-07-29T07:55:11.059Z,100548.65
2022-07-29T07:56:12.102Z,100547.05
2022-07-29T07:57:11.064Z,100551.88
2022-07-29T07:58:11.060Z,100549.61
2022-07-29T07:59:11.068Z,100549.07
2022-07-29T08:00:11.065Z,100546.86
2022-07-29T08:01:11.195Z,100546.21
2022-07-29T08:02:11.216Z,100548.09
2022-07-29T08:03:17.083Z,100543.72
2022-07-29T08:04:13.396Z,100538.98
2022-07-29T08:05:12.562Z,100540.54
2022-07-29T08:06:11.066Z,100541.29
2022-07-29T08:07:11.063Z,100542.35
2022-07-29T08:08:11.081Z,100538.83
2022-07-29T08:09:28.111Z,100539.62
2022-07-29T08:10:13.168Z,100538.93
2022-07-29T08:11:11.073Z,100538.39
2022-07-29T08:12:11.069Z,100540.08
2022-07-29T08:13:11.062Z,100539.38
2022-07-29T08:14:11.065Z,100534.70
2022-07-29T08:15:12.124Z,100540.06
2022-07-29T08:16:15.172Z,100539.58
2022-07-29T08:17:11.064Z,100542.26
2022-07-29T08:18:11.075Z,100537.95
2022-07-29T08:19:11.068Z,100539.61
2022-07-29T08:20:11.063Z,100544.53
2022-07-29T08:21:11.075Z,100540.47
2022-07-29T08:22:11.071Z,100537.88
2022-07-29T08:23:11.060Z,100538.14
2022-07-29T08:24:15.068Z,100535.26
2022-07-29T08:25:11.059Z,100540.36
2022-07-29T08:26:11.055Z,100532.43
2022-07-29T08:27:33.496Z,100536.48
2022-07-29T08:28:13.161Z,100531.96
2022-07-29T08:29:11.066Z,100535.43
2022-07-29T08:30:11.097Z,100537.25
2022-07-29T08:31:11.063Z,100533.70
2022-07-29T08:32:11.090Z,100530.54
2022-07-29T08:33:11.054Z,100532.19
2022-07-29T08:34:11.059Z,100529.76
2022-07-29T08:35:11.066Z,100529.14
2022-07-29T08:36:11.058Z,100528.19
2022-07-29T08:37:11.059Z,100532.44
2022-07-29T08:38:11.068Z,100534.81
2022-07-29T08:39:11.070Z,100530.83
2022-07-29T08:40:11.063Z,100532.07
2022-07-29T08:41:11.069Z,100530.91
2022-07-29T08:42:11.063Z,100530.88
2022-07-29T08:43:11.065Z,100535.97
2022-07-29T08:44:11.066Z,100536.00
2022-07-29T08:45:11.064Z,100535.20
2022-07-29T08:46:11.112Z,100530.54
2022-07-29T08:47:11.068Z,100531.83
2022-07-29T08:48:11.059Z,100528.69
2022-07-29T08:49:11.188Z,100527.13
2022-07-29T08:50:11.071Z,100524.34
2022-07-29T08:51:13.059Z,100521.59
2022-07-29T08:52:12.064Z,100520.98
2022-07-29T08:53:13.070Z,100518.61
2022-07-29T08:54:11.064Z,100526.02
2022-07-29T08:55:11.061Z,100523.56
2022-07-29T08:56:13.070Z,100524.64
2022-07-29T08:57:11.064Z,100523.34
2022-07-29T08:58:11.063Z,100518.63
2022-07-29T08:59:11.062Z,100523.99
2022-07-29T09:00:11.651Z,100518.86
2022-07-29T09:01:12.352Z,100523.25
2022-07-29T09:02:16.069Z,100521.04
2022-07-29T09:03:12.086Z,100521.25
2022-07-29T09:04:12.063Z,100522.38
2022-07-29T09:05:11.068Z,100521.22
2022-07-29T09:06:13.073Z,100521.84
2022-07-29T09:07:11.068Z,100523.29
2022-07-29T09:08:11.063Z,100521.38
2022-07-29T09:09:11.068Z,100522.00
2022-07-29T09:10:11.066Z,100522.99
2022-07-29T09:11:11.062Z,100524.77
2022-07-29T09:12:11.068Z,100523.56
2022-07-29T09:13:11.068Z,100527.25
2022-07-29T09:14:11.066Z,100523.79
2022-07-29T09:15:11.069Z,100523.92
2022-07-29T09:16:11.118Z,100521.56
2022-07-29T09:17:11.106Z,100521.01
2022-07-29T09:18:20.609Z,100520.83
2022-07-29T09:19:21.140Z,100523.47
2022-07-29T09:20:18.184Z,100523.48
2022-07-29T09:21:16.064Z,100521.77
2022-07-29T09:22:11.067Z,100525.09
2022-07-29T09:23:11.067Z,100526.40
2022-07-29T09:24:16.092Z,100525.03
2022-07-29T09:25:12.053Z,100520.30
2022-07-29T09:26:11.068Z,100521.09
2022-07-29T09:27:19.055Z,100522.12
2022-07-29T09:28:14.053Z,100518.62
2022-07-29T09:29:14.060Z,100517.77
2022-07-29T09:30:11.069Z,100509.96
2022-07-29T09:31:11.072Z,100514.57
2022-07-29T09:32:11.058Z,100511.07
2022-07-29T09:33:11.072Z,100514.74
2022-07-29T09:34:11.057Z,100514.30
2022-07-29T09:35:15.063Z,100518.54
2022-07-29T09:36:12.067Z,100518.07
2022-07-29T09:37:11.059Z,100516.53
2022-07-29T09:38:13.065Z,100517.76
2022-07-29T09:39:11.067Z,100520.86
2022-07-29T09:40:15.062Z,100520.69
2022-07-29T09:41:11.064Z,100519.64
2022-07-29T09:42:11.069Z,100519.81
2022-07-29T09:43:13.061Z,100518.31
2022-07-29T09:44:11.059Z,100519.89
2022-07-29T09:45:11.060Z,100519.82
2022-07-29T09:46:16.199Z,100521.50
2022-07-29T09:47:13.088Z,100521.65
2022-07-29T09:48:15.064Z,100519.05
2022-07-29T09:49:14.178Z,100517.91
2022-07-29T09:50:11.064Z,100519.96
2022-07-29T09:51:21.366Z,100515.96
2022-07-29T09:52:11.063Z,100515.72
2022-07-29T09:53:11.065Z,100520.32
2022-07-29T09:54:19.060Z,100519.82
2022-07-29T09:55:13.580Z,100520.32
2022-07-29T09:56:13.166Z,100525.55
2022-07-29T09:57:15.063Z,100519.92
2022-07-29T09:58:17.067Z,100525.59
2022-07-29T09:59:11.063Z,100525.36
2022-07-29T10:00:15.123Z,100522.91
2022-07-29T10:01:11.180Z,100523.47
2022-07-29T10:02:20.305Z,100522.17
2022-07-29T10:03:13.435Z,100522.04
2022-07-29T10:04:11.068Z,100518.51
2022-07-29T10:05:18.063Z,100516.73
2022-07-29T10:06:13.069Z,100517.67
2022-07-29T10:07:11.073Z,100516.37
2022-07-29T10:08:11.071Z,100516.74
2022-07-29T10:09:11.062Z,100516.49
2022-07-29T10:10:11.069Z,100517.09
2022-07-29T10:11:17.066Z,100514.30
2022-07-29T10:12:13.069Z,100513.22
2022-07-29T10:13:15.389Z,100511.82
2022-07-29T10:14:11.076Z,100512.64
2022-07-29T10:15:11.067Z,100515.94
2022-07-29T10:16:11.131Z,100519.24
2022-07-29T10:17:11.076Z,100518.16
2022-07-29T10:18:11.066Z,100517.80
2022-07-29T10:19:11.070Z,100519.97
2022-07-29T10:20:14.810Z,100522.52
2022-07-29T10:21:35.365Z,100523.22
2022-07-29T10:22:14.963Z,100525.65
2022-07-29T10:23:11.059Z,100527.55
2022-07-29T10:24:15.094Z,100522.50
2022-07-29T10:25:11.057Z,100526.53
2022-07-29T10:26:11.059Z,100526.32
2022-07-29T10:27:11.058Z,100527.27
2022-07-29T10:28:15.810Z,100529.59
2022-07-29T10:29:13.342Z,100529.14
2022-07-29T10:30:11.060Z,100532.41
2022-07-29T10:31:18.113Z,100530.81
2022-07-29T10:32:19.058Z,100533.54
2022-07-29T10:33:19.072Z,100530.20
2022-07-29T10:34:19.238Z,100530.20
2022-07-29T10:35:23.060Z,100529.10
2022-07-29T10:36:19.056Z,100529.88
2022-07-29T10:37:17.061Z,100529.95
2022-07-29T10:38:19.073Z,100530.50
2022-07-29T10:39:22.274Z,100530.17
2022-07-29T10:40:23.061Z,100527.79
2022-07-29T10:41:23.062Z,100531.87
2022-07-29T10:42:29.411Z,100533.12
2022-07-29T10:43:22.287Z,100531.89
2022-07-29T10:44:17.349Z,100532.45
2022-07-29T10:45:11.064Z,100532.29
2022-07-29T10:46:11.114Z,100532.54
2022-07-29T10:47:15.065Z,100528.56
2022-07-29T10:48:11.064Z,100532.35
2022-07-29T10:49:17.145Z,100526.79
2022-07-29T10:50:16.970Z,100523.41
2022-07-29T10:51:13.227Z,100520.25
2022-07-29T10:52:12.066Z,100525.34
2022-07-29T10:53:11.063Z,100524.45
2022-07-29T10:54:11.066Z,100523.59
2022-07-29T10:55:15.066Z,100528.75
2022-07-29T10:56:19.063Z,100523.41
2022-07-29T10:57:20.818Z,100524.34
2022-07-29T10:58:17.888Z,100522.08
2022-07-29T10:59:19.065Z,100520.27
2022-07-29T11:00:19.063Z,100522.67
2022-07-29T11:01:19.067Z,100525.57
2022-07-29T11:02:41.368Z,100520.86
2022-07-29T11:03:13.154Z,100521.35
2022-07-29T11:04:11.068Z,100523.08
2022-07-29T11:05:15.066Z,100518.25
2022-07-29T11:06:11.067Z,100519.75
2022-07-29T11:07:11.077Z,100516.54
2022-07-29T11:08:19.536Z,100517.00
2022-07-29T11:09:19.947Z,100514.34
2022-07-29T11:10:20.167Z,100514.02
2022-07-29T11:11:22.229Z,100509.62
2022-07-29T11:12:21.069Z,100509.10
2022-07-29T11:13:11.067Z,100510.08
2022-07-29T11:14:11.067Z,100505.95
2022-07-29T11:15:11.071Z,100509.43
2022-07-29T11:16:11.377Z,100507.54
2022-07-29T11:17:11.063Z,100511.08
2022-07-29T11:18:15.042Z,100508.45
2022-07-29T11:19:26.470Z,100513.84
2022-07-29T11:20:21.278Z,100514.55
2022-07-29T11:21:19.066Z,100511.79
2022-07-29T11:22:11.070Z,100515.07
2022-07-29T11:23:19.058Z,100511.57
2022-07-29T11:24:18.619Z,100510.81
2022-07-29T11:25:17.317Z,100512.07